createdAt,value
2018-04-19T00:00:32.375Z,9.80
2018-04-19T00:01:32.366Z,9.00
2018-04-19T00:02:32.357Z,8.50
2018-04-19T00:03:32.348Z,8.60
2018-04-19T00:04:32.340Z,8.60
2018-04-19T00:05:32.331Z,8.70
2018-04-19T00:06:32.324Z,8.90
2018-04-19T00:07:32.314Z,8.70
2018-04-19T00:08:32.306Z,9.00
2018-04-19T00:09:32.298Z,8.90
2018-04-19T00:10:32.290Z,8.20
2018-04-19T00:11:32.280Z,8.90
2018-04-19T00:12:32.276Z,8.20
2018-04-19T00:13:32.264Z,8.40
2018-04-19T00:14:32.355Z,9.00
2018-04-19T00:15:32.246Z,8.00
2018-04-19T00:16:32.238Z,7.90
2018-04-19T00:17:32.230Z,7.80
2018-04-19T00:18:32.221Z,7.80
2018-04-19T00:19:32.213Z,6.90
2018-04-19T00:20:32.204Z,7.60
2018-04-19T00:21:32.201Z,8.20
2018-04-19T00:22:32.187Z,9.30
2018-04-19T00:23:32.178Z,9.90
2018-04-19T00:24:32.169Z,10.20
2018-04-19T00:25:32.161Z,10.10
2018-04-19T00:26:32.151Z,10.50
2018-04-19T00:27:32.143Z,10.50
2018-04-19T00:28:32.133Z,11.00
2018-04-19T00:29:32.125Z,10.70
2018-04-19T00:30:32.118Z,9.00
2018-04-19T00:31:32.108Z,8.60
2018-04-19T00:32:32.103Z,7.60
2018-04-19T00:33:32.093Z,7.40
2018-04-19T00:34:32.091Z,7.50
2018-04-19T00:35:32.075Z,6.70
2018-04-19T00:36:32.068Z,7.00
2018-04-19T00:37:32.057Z,7.00
2018-04-19T00:38:32.050Z,6.80
2018-04-19T00:39:32.042Z,7.90
2018-04-19T00:40:32.035Z,7.40
2018-04-19T00:41:32.026Z,8.70
2018-04-19T00:42:32.018Z,7.80
2018-04-19T00:43:32.006Z,8.50
2018-04-19T00:44:32.098Z,7.90
2018-04-19T00:45:31.990Z,8.00
2018-04-19T00:46:31.981Z,7.70
2018-04-19T00:47:31.972Z,7.40
2018-04-19T00:48:31.964Z,7.70
2018-04-19T00:49:31.955Z,7.80
2018-04-19T00:50:31.946Z,8.40
2018-04-19T00:51:31.936Z,8.20
2018-04-19T00:52:31.927Z,8.30
2018-04-19T00:53:31.920Z,7.70
2018-04-19T00:54:31.914Z,8.20
2018-04-19T00:55:31.903Z,8.50
2018-04-19T00:56:31.895Z,9.00
2018-04-19T00:57:31.891Z,8.40
2018-04-19T00:58:31.878Z,8.50
2018-04-19T00:59:31.868Z,8.60
2018-04-19T01:00:31.859Z,8.20
2018-04-19T01:01:31.853Z,8.60
2018-04-19T01:02:31.843Z,7.70
2018-04-19T01:03:31.832Z,7.80
2018-04-19T01:04:31.825Z,7.40
2018-04-19T01:05:31.817Z,7.70
2018-04-19T01:06:31.808Z,6.70
2018-04-19T01:07:31.800Z,7.60
2018-04-19T01:08:31.790Z,7.00
2018-04-19T01:09:31.782Z,6.80
2018-04-19T01:10:31.771Z,7.00
2018-04-19T01:11:31.763Z,8.40
2018-04-19T01:12:31.758Z,7.90
2018-04-19T01:13:31.747Z,7.70
2018-04-19T01:14:31.738Z,7.30
2018-04-19T01:15:31.731Z,7.60
2018-04-19T01:16:31.720Z,8.20
2018-04-19T01:17:31.712Z,7.50
2018-04-19T01:18:31.703Z,7.50
2018-04-19T01:19:31.692Z,7.30
2018-04-19T01:20:31.685Z,7.50
2018-04-19T01:21:31.679Z,7.00
2018-04-19T01:22:31.669Z,7.50
2018-04-19T01:23:31.659Z,7.40
2018-04-19T01:24:31.650Z,7.50
2018-04-19T01:25:31.641Z,7.60
2018-04-19T01:26:31.637Z,7.80
2018-04-19T01:27:31.625Z,7.50
2018-04-19T01:28:31.616Z,7.60
2018-04-19T01:29:31.607Z,7.80
2018-04-19T01:30:31.599Z,8.10
2018-04-19T01:31:31.589Z,8.40
2018-04-19T01:32:31.584Z,9.80
2018-04-19T01:33:31.571Z,10.50
2018-04-19T01:34:31.573Z,10.60
2018-04-19T01:35:31.555Z,11.50
2018-04-19T01:36:31.543Z,11.10
2018-04-19T01:37:31.536Z,11.60
2018-04-19T01:38:31.556Z,10.70
2018-04-19T01:39:31.518Z,9.50
2018-04-19T01:40:31.512Z,8.80
2018-04-19T01:41:31.501Z,8.10
2018-04-19T01:42:31.492Z,8.30
2018-04-19T01:43:31.481Z,9.60
2018-04-19T01:44:31.480Z,9.80
2018-04-19T01:45:31.488Z,9.50
2018-04-19T01:46:31.457Z,9.00
2018-04-19T01:47:31.447Z,8.50
2018-04-19T01:48:31.438Z,8.60
2018-04-19T01:49:31.436Z,8.80
2018-04-19T01:50:31.425Z,8.90
2018-04-19T01:51:31.410Z,8.70
2018-04-19T01:52:31.404Z,7.80
2018-04-19T01:53:31.397Z,8.30
2018-04-19T01:54:31.386Z,8.80
2018-04-19T01:55:31.377Z,7.60
2018-04-19T01:56:31.368Z,7.70
2018-04-19T01:57:31.359Z,7.90
2018-04-19T01:58:31.351Z,7.90
2018-04-19T01:59:31.353Z,7.70
2018-04-19T02:00:31.342Z,7.60
2018-04-19T02:01:31.335Z,8.90
2018-04-19T02:02:31.327Z,9.00
2018-04-19T02:03:31.316Z,8.70
2018-04-19T02:04:31.306Z,8.50
2018-04-19T02:05:31.299Z,8.60
2018-04-19T02:06:31.291Z,9.40
2018-04-19T02:07:31.280Z,8.80
2018-04-19T02:08:31.271Z,8.80
2018-04-19T02:09:31.275Z,9.30
2018-04-19T02:10:31.254Z,9.40
2018-04-19T02:11:31.246Z,9.00
2018-04-19T02:12:31.236Z,8.70
2018-04-19T02:13:31.227Z,8.80
2018-04-19T02:14:31.219Z,8.40
2018-04-19T02:15:31.211Z,8.60
2018-04-19T02:16:31.204Z,8.90
2018-04-19T02:17:31.192Z,8.30
2018-04-19T02:18:31.185Z,9.00
2018-04-19T02:19:31.174Z,9.00
2018-04-19T02:20:31.166Z,8.40
2018-04-19T02:21:31.161Z,8.10
2018-04-19T02:22:31.152Z,8.40
2018-04-19T02:23:31.138Z,8.40
2018-04-19T02:24:31.135Z,9.00
2018-04-19T02:25:31.120Z,8.50
2018-04-19T02:26:31.112Z,8.80
2018-04-19T02:27:31.103Z,8.40
2018-04-19T02:28:31.094Z,8.90
2018-04-19T02:29:31.086Z,9.20
2018-04-19T02:30:31.085Z,8.80
2018-04-19T02:31:31.068Z,8.80
2018-04-19T02:32:31.063Z,8.20
2018-04-19T02:33:31.051Z,8.60
2018-04-19T02:34:31.041Z,9.30
2018-04-19T02:35:31.035Z,8.80
2018-04-19T02:36:31.023Z,8.30
2018-04-19T02:37:31.015Z,9.10
2018-04-19T02:38:31.011Z,8.90
2018-04-19T02:39:30.997Z,8.60
2018-04-19T02:40:30.987Z,9.20
2018-04-19T02:41:30.980Z,9.00
2018-04-19T02:42:30.973Z,8.40
2018-04-19T02:43:30.960Z,9.00
2018-04-19T02:44:30.950Z,8.70
2018-04-19T02:45:30.942Z,8.90
2018-04-19T02:46:30.937Z,9.30
2018-04-19T02:47:30.923Z,9.50
2018-04-19T02:48:30.915Z,8.40
2018-04-19T02:49:30.911Z,8.80
2018-04-19T02:50:30.902Z,8.30
2018-04-19T02:51:30.887Z,8.50
2018-04-19T02:52:30.878Z,8.90
2018-04-19T02:53:30.867Z,8.80
2018-04-19T02:54:30.857Z,9.20
2018-04-19T02:55:30.847Z,8.50
2018-04-19T02:56:30.837Z,7.90
2018-04-19T02:57:30.828Z,8.30
2018-04-19T02:58:30.821Z,8.20
2018-04-19T02:59:30.809Z,8.50
2018-04-19T03:00:30.801Z,9.20
2018-04-19T03:01:30.793Z,8.50
2018-04-19T03:02:30.782Z,8.00
2018-04-19T03:03:30.773Z,8.40
2018-04-19T03:04:30.763Z,8.50
2018-04-19T03:05:30.757Z,8.00
2018-04-19T03:06:30.745Z,8.40
2018-04-19T03:07:30.736Z,8.00
2018-04-19T03:08:30.727Z,8.40
2018-04-19T03:09:30.719Z,8.20
2018-04-19T03:10:30.707Z,8.20
2018-04-19T03:11:30.699Z,7.70
2018-04-19T03:12:30.707Z,8.50
2018-04-19T03:13:30.681Z,8.20
2018-04-19T03:14:30.671Z,8.60
2018-04-19T03:15:30.661Z,8.50
2018-04-19T03:16:30.651Z,8.70
2018-04-19T03:17:30.643Z,9.00
2018-04-19T03:18:30.634Z,9.60
2018-04-19T03:19:30.625Z,9.50
2018-04-19T03:20:30.679Z,9.40
2018-04-19T03:21:30.607Z,9.60
2018-04-19T03:22:30.599Z,9.40
2018-04-19T03:23:30.588Z,9.20
2018-04-19T03:24:30.577Z,8.90
2018-04-19T03:25:30.569Z,9.60
2018-04-19T03:26:30.561Z,10.40
2018-04-19T03:27:30.550Z,9.90
2018-04-19T03:28:30.541Z,9.50
2018-04-19T03:29:30.532Z,9.50
2018-04-19T03:30:30.525Z,9.20
2018-04-19T03:31:30.513Z,8.60
2018-04-19T03:32:30.502Z,8.10
2018-04-19T03:33:30.497Z,8.50
2018-04-19T03:34:30.485Z,8.30
2018-04-19T03:35:30.524Z,8.30
2018-04-19T03:36:30.473Z,9.00
2018-04-19T03:37:30.457Z,9.40
2018-04-19T03:38:30.450Z,8.30
2018-04-19T03:39:30.439Z,9.40
2018-04-19T03:40:30.430Z,9.40
2018-04-19T03:41:30.420Z,9.40
2018-04-19T03:42:30.411Z,8.80
2018-04-19T03:43:30.401Z,9.00
2018-04-19T03:44:30.392Z,9.20
2018-04-19T03:45:30.382Z,9.90
2018-04-19T03:46:30.373Z,9.80
2018-04-19T03:47:30.364Z,9.50
2018-04-19T03:48:30.392Z,9.80
2018-04-19T03:49:30.345Z,8.60
2018-04-19T03:50:30.336Z,9.30
2018-04-19T03:51:30.326Z,9.00
2018-04-19T03:52:30.317Z,8.70
2018-04-19T03:53:30.308Z,9.20
2018-04-19T03:54:30.298Z,9.10
2018-04-19T03:55:30.289Z,8.90
2018-04-19T03:56:30.280Z,8.70
2018-04-19T03:57:30.270Z,9.30
2018-04-19T03:58:30.261Z,8.60
2018-04-19T03:59:30.252Z,8.40
2018-04-19T04:00:30.242Z,8.40
2018-04-19T04:01:30.233Z,9.20
2018-04-19T04:02:30.224Z,8.30
2018-04-19T04:03:30.214Z,8.60
2018-04-19T04:04:30.204Z,8.10
2018-04-19T04:05:30.197Z,8.60
2018-04-19T04:06:30.186Z,8.50
2018-04-19T04:07:30.176Z,8.50
2018-04-19T04:08:30.168Z,9.50
2018-04-19T04:09:30.159Z,9.20
2018-04-19T04:10:30.155Z,8.60
2018-04-19T04:11:30.139Z,9.10
2018-04-19T04:12:30.134Z,8.40
2018-04-19T04:13:30.125Z,8.70
2018-04-19T04:14:30.116Z,9.30
2018-04-19T04:15:30.105Z,8.90
2018-04-19T04:16:30.120Z,9.10
2018-04-19T04:17:30.087Z,8.80
2018-04-19T04:18:30.080Z,8.50
2018-04-19T04:19:30.068Z,9.00
2018-04-19T04:20:30.060Z,8.00
2018-04-19T04:21:30.051Z,8.70
2018-04-19T04:22:30.042Z,8.60
2018-04-19T04:23:30.030Z,8.80
2018-04-19T04:24:30.024Z,8.70
2018-04-19T04:25:30.012Z,8.40
2018-04-19T04:26:30.002Z,8.30
2018-04-19T04:27:29.992Z,8.80
2018-04-19T04:28:29.984Z,8.90
2018-04-19T04:29:29.979Z,9.00
2018-04-19T04:30:29.962Z,9.10
2018-04-19T04:31:29.954Z,9.60
2018-04-19T04:32:30.045Z,9.60
2018-04-19T04:33:29.935Z,9.10
2018-04-19T04:34:29.928Z,9.30
2018-04-19T04:35:29.917Z,9.10
2018-04-19T04:36:29.907Z,9.70
2018-04-19T04:37:29.897Z,9.00
2018-04-19T04:38:29.889Z,9.40
2018-04-19T04:39:29.878Z,9.50
2018-04-19T04:40:29.868Z,9.30
2018-04-19T04:41:29.859Z,10.00
2018-04-19T04:42:29.840Z,8.90
2018-04-19T04:43:29.831Z,9.10
2018-04-19T04:44:29.819Z,8.80
2018-04-19T04:45:29.822Z,9.00
2018-04-19T04:46:29.802Z,10.10
2018-04-19T04:47:29.791Z,9.60
2018-04-19T04:48:29.780Z,9.00
2018-04-19T04:49:29.772Z,9.70
2018-04-19T04:50:29.763Z,9.20
2018-04-19T04:51:29.753Z,9.10
2018-04-19T04:52:29.743Z,9.00
2018-04-19T04:53:29.734Z,9.20
2018-04-19T04:54:29.724Z,9.50
2018-04-19T04:55:29.714Z,10.40
2018-04-19T04:56:29.704Z,10.40
2018-04-19T04:57:29.695Z,10.40
2018-04-19T04:58:29.686Z,10.60
2018-04-19T04:59:29.679Z,10.00
2018-04-19T05:00:29.666Z,10.70
2018-04-19T05:01:29.661Z,11.00
2018-04-19T05:02:29.646Z,10.30
2018-04-19T05:03:29.637Z,11.50
2018-04-19T05:04:29.628Z,10.70
2018-04-19T05:05:29.619Z,11.00
2018-04-19T05:06:29.609Z,11.50
2018-04-19T05:07:29.600Z,10.60
2018-04-19T05:08:29.590Z,10.40
2018-04-19T05:09:29.581Z,11.30
2018-04-19T05:10:29.572Z,11.10
2018-04-19T05:11:29.561Z,12.70
2018-04-19T05:12:29.552Z,12.50
2018-04-19T05:13:29.541Z,13.20
2018-04-19T05:14:29.574Z,12.20
2018-04-19T05:15:29.523Z,11.50
2018-04-19T05:16:29.514Z,11.50
2018-04-19T05:17:29.503Z,12.00
2018-04-19T05:18:29.495Z,12.40
2018-04-19T05:19:29.490Z,11.50
2018-04-19T05:20:29.475Z,12.30
2018-04-19T05:21:29.466Z,13.40
2018-04-19T05:22:29.458Z,12.00
2018-04-19T05:23:29.446Z,13.00
2018-04-19T05:24:29.436Z,11.50
2018-04-19T05:25:29.426Z,11.80
2018-04-19T05:26:29.419Z,11.80
2018-04-19T05:27:29.409Z,11.50
2018-04-19T05:28:29.398Z,11.30
2018-04-19T05:29:29.392Z,10.90
2018-04-19T05:30:29.383Z,11.60
2018-04-19T05:31:29.368Z,11.40
2018-04-19T05:32:29.362Z,11.70
2018-04-19T05:33:29.351Z,11.10
2018-04-19T05:34:29.341Z,11.20
2018-04-19T05:35:29.333Z,11.60
2018-04-19T05:36:29.324Z,11.00
2018-04-19T05:37:29.314Z,11.80
2018-04-19T05:38:29.301Z,11.60
2018-04-19T05:39:29.295Z,11.30
2018-04-19T05:40:29.283Z,11.10
2018-04-19T05:41:29.274Z,11.40
2018-04-19T05:42:29.264Z,12.20
2018-04-19T05:43:29.256Z,11.50
2018-04-19T05:44:29.245Z,10.90
2018-04-19T05:45:29.235Z,11.80
2018-04-19T05:46:29.227Z,11.20
2018-04-19T05:47:29.216Z,10.90
2018-04-19T05:48:29.206Z,10.80
2018-04-19T05:49:29.198Z,11.00
2018-04-19T05:50:29.288Z,11.70
2018-04-19T05:51:29.176Z,11.50
2018-04-19T05:52:29.167Z,11.00
2018-04-19T05:53:29.158Z,11.10
2018-04-19T05:54:29.169Z,10.70
2018-04-19T05:55:29.141Z,11.10
2018-04-19T05:56:29.128Z,11.40
2018-04-19T05:57:29.120Z,12.60
2018-04-19T05:58:29.109Z,11.70
2018-04-19T05:59:29.100Z,11.50
2018-04-19T06:00:29.088Z,11.10
2018-04-19T06:01:29.079Z,12.00
2018-04-19T06:02:29.070Z,11.60
2018-04-19T06:03:29.060Z,11.50
2018-04-19T06:04:29.049Z,11.70
2018-04-19T06:05:29.041Z,10.90
2018-04-19T06:06:29.030Z,11.00
2018-04-19T06:07:29.020Z,11.90
2018-04-19T06:08:29.072Z,11.70
2018-04-19T06:09:29.000Z,11.70
2018-04-19T06:10:28.990Z,12.30
2018-04-19T06:11:28.979Z,11.70
2018-04-19T06:12:28.971Z,11.90
2018-04-19T06:13:28.961Z,11.70
2018-04-19T06:14:28.951Z,11.20
2018-04-19T06:15:28.946Z,12.30
2018-04-19T06:16:28.930Z,10.90
2018-04-19T06:17:28.920Z,12.10
2018-04-19T06:18:28.911Z,12.20
2018-04-19T06:19:28.904Z,12.20
2018-04-19T06:20:28.990Z,11.50
2018-04-19T06:21:28.884Z,12.40
2018-04-19T06:22:28.871Z,12.50
2018-04-19T06:23:28.860Z,12.90
2018-04-19T06:24:28.850Z,12.80
2018-04-19T06:25:28.841Z,12.60
2018-04-19T06:26:28.830Z,12.30
2018-04-19T06:27:28.820Z,13.30
2018-04-19T06:28:28.808Z,12.60
2018-04-19T06:29:28.800Z,13.20
2018-04-19T06:30:28.790Z,12.20
2018-04-19T06:31:28.779Z,11.80
2018-04-19T06:32:28.773Z,12.60
2018-04-19T06:33:28.759Z,13.10
2018-04-19T06:34:28.750Z,13.50
2018-04-19T06:35:28.739Z,13.50
2018-04-19T06:36:28.732Z,13.80
2018-04-19T06:37:28.719Z,13.10
2018-04-19T06:38:28.709Z,12.70
2018-04-19T06:39:28.698Z,14.00
2018-04-19T06:40:28.694Z,13.80
2018-04-19T06:41:28.723Z,13.20
2018-04-19T06:42:28.669Z,13.80
2018-04-19T06:43:28.657Z,13.50
2018-04-19T06:44:28.747Z,13.10
2018-04-19T06:45:28.637Z,13.80
2018-04-19T06:46:28.627Z,13.00
2018-04-19T06:47:28.616Z,13.40
2018-04-19T06:48:28.607Z,13.80
2018-04-19T06:49:28.596Z,13.10
2018-04-19T06:50:28.687Z,13.90
2018-04-19T06:51:28.579Z,13.00
2018-04-19T06:52:28.565Z,12.40
2018-04-19T06:53:28.555Z,11.70
2018-04-19T06:54:28.544Z,12.20
2018-04-19T06:55:28.536Z,12.00
2018-04-19T06:56:28.525Z,12.00
2018-04-19T06:57:28.514Z,12.10
2018-04-19T06:58:28.502Z,12.30
2018-04-19T06:59:28.493Z,13.00
2018-04-19T07:00:28.483Z,13.00
2018-04-19T07:01:28.473Z,13.30
2018-04-19T07:02:28.463Z,13.30
2018-04-19T07:03:28.456Z,12.80
2018-04-19T07:04:28.442Z,13.70
2018-04-19T07:05:28.433Z,14.00
2018-04-19T07:06:28.456Z,13.90
2018-04-19T07:07:28.411Z,13.70
2018-04-19T07:08:28.402Z,14.20
2018-04-19T07:09:28.391Z,13.40
2018-04-19T07:10:28.382Z,14.00
2018-04-19T07:11:28.369Z,12.90
2018-04-19T07:12:28.360Z,13.60
2018-04-19T07:13:28.350Z,13.30
2018-04-19T07:14:28.340Z,13.50
2018-04-19T07:15:28.327Z,13.90
2018-04-19T07:16:28.321Z,13.90
2018-04-19T07:17:28.309Z,12.80
2018-04-19T07:18:28.299Z,13.90
2018-04-19T07:19:28.297Z,13.90
2018-04-19T07:20:28.282Z,13.90
2018-04-19T07:21:28.266Z,14.40
2018-04-19T07:22:28.259Z,13.70
2018-04-19T07:23:28.245Z,13.40
2018-04-19T07:24:28.236Z,14.30
2018-04-19T07:25:28.225Z,14.50
2018-04-19T07:26:28.216Z,13.90
2018-04-19T07:27:28.203Z,13.50
2018-04-19T07:28:28.195Z,15.10
2018-04-19T07:29:28.184Z,13.90
2018-04-19T07:30:28.175Z,13.90
2018-04-19T07:31:28.163Z,13.20
2018-04-19T07:32:28.153Z,14.10
2018-04-19T07:33:28.145Z,14.10
2018-04-19T07:34:28.132Z,13.10
2018-04-19T07:35:28.122Z,13.60
2018-04-19T07:36:28.110Z,14.00
2018-04-19T07:37:28.098Z,13.50
2018-04-19T07:38:28.091Z,13.90
2018-04-19T07:39:28.079Z,14.00
2018-04-19T07:40:28.069Z,13.90
2018-04-19T07:41:28.059Z,13.30
2018-04-19T07:42:28.048Z,14.40
2018-04-19T07:43:28.037Z,13.30
2018-04-19T07:44:28.027Z,14.20
2018-04-19T07:45:28.017Z,14.20
2018-04-19T07:46:28.006Z,13.50
2018-04-19T07:47:27.993Z,14.30
2018-04-19T07:48:27.988Z,13.90
2018-04-19T07:49:27.974Z,14.60
2018-04-19T07:50:27.964Z,13.10
2018-04-19T07:51:28.026Z,14.60
2018-04-19T07:52:27.945Z,13.60
2018-04-19T07:53:27.934Z,14.10
2018-04-19T07:54:27.923Z,13.80
2018-04-19T07:55:27.910Z,14.20
2018-04-19T07:56:28.000Z,14.40
2018-04-19T07:57:27.891Z,13.20
2018-04-19T07:58:27.880Z,12.80
2018-04-19T07:59:27.869Z,13.90
2018-04-19T08:00:27.860Z,15.00
2018-04-19T08:01:27.849Z,13.80
2018-04-19T08:02:27.839Z,14.30
2018-04-19T08:03:27.829Z,14.10
2018-04-19T08:04:27.818Z,14.40
2018-04-19T08:05:27.846Z,12.90
2018-04-19T08:06:27.797Z,13.70
2018-04-19T08:07:27.786Z,14.50
2018-04-19T08:08:27.776Z,14.30
2018-04-19T08:09:27.765Z,15.00
2018-04-19T08:10:27.754Z,14.60
2018-04-19T08:11:27.758Z,14.30
2018-04-19T08:12:27.733Z,14.80
2018-04-19T08:13:27.725Z,15.40
2018-04-19T08:14:27.815Z,14.40
2018-04-19T08:15:27.702Z,14.90
2018-04-19T08:16:27.692Z,14.20
2018-04-19T08:17:27.683Z,14.90
2018-04-19T08:18:27.673Z,15.00
2018-04-19T08:19:27.660Z,15.30
2018-04-19T08:20:27.648Z,14.60
2018-04-19T08:21:27.639Z,14.80
2018-04-19T08:22:27.629Z,15.30
2018-04-19T08:23:27.620Z,14.40
2018-04-19T08:24:27.607Z,15.80
2018-04-19T08:25:27.597Z,15.20
2018-04-19T08:26:27.587Z,14.60
2018-04-19T08:27:27.575Z,14.50
2018-04-19T08:28:27.565Z,14.40
2018-04-19T08:29:27.555Z,14.60
2018-04-19T08:30:27.544Z,14.90
2018-04-19T08:31:27.532Z,15.10
2018-04-19T08:32:27.522Z,14.10
2018-04-19T08:33:27.513Z,15.00
2018-04-19T08:34:27.500Z,14.80
2018-04-19T08:35:27.492Z,14.20
2018-04-19T08:36:27.479Z,15.50
2018-04-19T08:37:27.470Z,15.00
2018-04-19T08:38:27.459Z,14.60
2018-04-19T08:39:27.446Z,14.80
2018-04-19T08:40:27.435Z,14.40
2018-04-19T08:41:27.426Z,16.20
2018-04-19T08:42:27.417Z,15.60
2018-04-19T08:43:27.405Z,15.50
2018-04-19T08:44:27.397Z,14.80
2018-04-19T08:45:27.388Z,14.90
2018-04-19T08:46:27.374Z,15.40
2018-04-19T08:47:27.363Z,15.50
2018-04-19T08:48:27.352Z,14.70
2018-04-19T08:49:27.342Z,15.80
2018-04-19T08:50:27.331Z,15.60
2018-04-19T08:51:27.321Z,15.40
2018-04-19T08:52:27.309Z,15.60
2018-04-19T08:53:27.302Z,16.10
2018-04-19T08:54:27.289Z,15.50
2018-04-19T08:55:27.277Z,16.10
2018-04-19T08:56:27.284Z,16.50
2018-04-19T08:57:27.256Z,15.80
2018-04-19T08:58:27.247Z,16.70
2018-04-19T08:59:27.235Z,15.40
2018-04-19T09:00:27.224Z,16.20
2018-04-19T09:01:27.214Z,16.10
2018-04-19T09:02:27.206Z,15.80
2018-04-19T09:03:27.194Z,16.90
2018-04-19T09:04:27.184Z,16.50
2018-04-19T09:05:27.173Z,16.70
2018-04-19T09:06:27.160Z,16.70
2018-04-19T09:07:27.148Z,15.60
2018-04-19T09:08:27.139Z,16.30
2018-04-19T09:09:27.129Z,16.30
2018-04-19T09:10:27.117Z,15.90
2018-04-19T09:11:27.107Z,16.50
2018-04-19T09:12:27.097Z,16.50
2018-04-19T09:13:27.088Z,16.60
2018-04-19T09:14:27.077Z,16.70
2018-04-19T09:15:27.066Z,16.90
2018-04-19T09:16:27.055Z,16.40
2018-04-19T09:17:27.044Z,17.40
2018-04-19T09:18:27.034Z,17.10
2018-04-19T09:19:27.047Z,17.00
2018-04-19T09:20:27.012Z,18.10
2018-04-19T09:21:27.002Z,16.90
2018-04-19T09:22:26.991Z,17.10
2018-04-19T09:23:26.980Z,16.80
2018-04-19T09:24:26.969Z,16.40
2018-04-19T09:25:26.959Z,16.90
2018-04-19T09:26:26.949Z,16.10
2018-04-19T09:27:26.937Z,16.70
2018-04-19T09:28:26.927Z,15.90
2018-04-19T09:29:26.916Z,16.80
2018-04-19T09:30:26.906Z,16.80
2018-04-19T09:31:26.894Z,17.10
2018-04-19T09:32:26.884Z,17.00
2018-04-19T09:33:26.874Z,17.80
2018-04-19T09:34:26.864Z,18.40
2018-04-19T09:35:26.852Z,18.40
2018-04-19T09:36:26.842Z,17.00
2018-04-19T09:37:26.832Z,17.50
2018-04-19T09:38:26.822Z,18.20
2018-04-19T09:39:26.811Z,18.10
2018-04-19T09:40:26.800Z,17.70
2018-04-19T09:41:26.791Z,18.40
2018-04-19T09:42:26.779Z,18.80
2018-04-19T09:43:26.767Z,18.10
2018-04-19T09:44:26.761Z,18.60
2018-04-19T09:45:26.747Z,18.00
2018-04-19T09:46:26.737Z,18.10
2018-04-19T09:47:26.725Z,17.90
2018-04-19T09:48:26.722Z,17.70
2018-04-19T09:49:26.704Z,18.50
2018-04-19T09:50:26.694Z,17.50
2018-04-19T09:51:26.683Z,18.20
2018-04-19T09:52:26.672Z,18.70
2018-04-19T09:53:26.664Z,18.30
2018-04-19T09:54:26.650Z,18.00
2018-04-19T09:55:26.640Z,18.30
2018-04-19T09:56:26.630Z,18.70
2018-04-19T09:57:26.623Z,20.00
2018-04-19T09:58:26.610Z,19.50
2018-04-19T09:59:26.598Z,18.80
2018-04-19T10:00:26.589Z,21.20
2018-04-19T10:01:26.578Z,21.40
2018-04-19T10:02:26.566Z,21.40
2018-04-19T10:03:26.556Z,21.80
2018-04-19T10:04:26.547Z,22.50
2018-04-19T10:05:26.536Z,22.00
2018-04-19T10:06:26.527Z,22.10
2018-04-19T10:07:26.515Z,22.50
2018-04-19T10:08:26.506Z,23.40
2018-04-19T10:09:26.494Z,23.20
2018-04-19T10:10:26.518Z,23.70
2018-04-19T10:11:26.473Z,22.80
2018-04-19T10:12:26.462Z,23.10
2018-04-19T10:13:26.454Z,23.70
2018-04-19T10:14:26.444Z,24.10
2018-04-19T10:15:26.432Z,23.20
2018-04-19T10:16:26.424Z,23.00
2018-04-19T10:17:26.413Z,24.00
2018-04-19T10:18:26.403Z,24.50
2018-04-19T10:19:26.391Z,24.70
2018-04-19T10:20:26.383Z,23.90
2018-04-19T10:21:26.447Z,24.50
2018-04-19T10:22:26.364Z,23.40
2018-04-19T10:23:26.351Z,23.00
2018-04-19T10:24:26.341Z,23.90
2018-04-19T10:25:26.333Z,23.60
2018-04-19T10:26:26.321Z,24.00
2018-04-19T10:27:26.352Z,23.60
2018-04-19T10:28:26.301Z,24.10
2018-04-19T10:29:26.293Z,23.70
2018-04-19T10:30:26.281Z,23.40
2018-04-19T10:31:26.270Z,23.40
2018-04-19T10:32:26.262Z,24.70
2018-04-19T10:33:26.251Z,24.80
2018-04-19T10:34:26.243Z,24.50
2018-04-19T10:35:26.230Z,24.20
2018-04-19T10:36:26.220Z,22.90
2018-04-19T10:37:26.211Z,24.50
2018-04-19T10:38:26.200Z,25.10
2018-04-19T10:39:26.189Z,24.40
2018-04-19T10:40:26.182Z,24.20
2018-04-19T10:41:26.169Z,25.50
2018-04-19T10:42:26.161Z,26.80
2018-04-19T10:43:26.149Z,27.60
2018-04-19T10:44:26.141Z,25.10
2018-04-19T10:45:26.146Z,25.50
2018-04-19T10:46:26.128Z,24.90
2018-04-19T10:47:26.117Z,23.30
2018-04-19T10:48:26.102Z,24.20
2018-04-19T10:49:26.091Z,24.20
2018-04-19T10:50:26.083Z,23.90
2018-04-19T10:51:26.070Z,24.40
2018-04-19T10:52:26.067Z,24.50
2018-04-19T10:53:26.052Z,24.80
2018-04-19T10:54:26.041Z,25.20
2018-04-19T10:55:26.031Z,24.50
2018-04-19T10:56:26.023Z,26.90
2018-04-19T10:57:26.016Z,24.90
2018-04-19T10:58:26.002Z,24.40
2018-04-19T10:59:25.990Z,24.90
2018-04-19T11:00:25.984Z,24.30
2018-04-19T11:01:25.975Z,24.10
2018-04-19T11:02:25.963Z,23.90
2018-04-19T11:03:25.954Z,23.00
2018-04-19T11:04:25.945Z,25.10
2018-04-19T11:05:25.934Z,23.60
2018-04-19T11:06:25.924Z,23.70
2018-04-19T11:07:25.919Z,24.10
2018-04-19T11:08:25.904Z,24.70
2018-04-19T11:09:25.893Z,24.00
2018-04-19T11:10:25.885Z,23.90
2018-04-19T11:11:25.891Z,23.70
2018-04-19T11:12:25.870Z,24.90
2018-04-19T11:13:25.858Z,24.40
2018-04-19T11:14:25.847Z,23.20
2018-04-19T11:15:25.835Z,23.00
2018-04-19T11:16:25.830Z,23.00
2018-04-19T11:17:25.817Z,24.20
2018-04-19T11:18:25.817Z,23.40
2018-04-19T11:19:25.807Z,24.20
2018-04-19T11:20:25.794Z,25.30
2018-04-19T11:21:25.787Z,24.40
2018-04-19T11:22:25.777Z,24.10
2018-04-19T11:23:25.766Z,23.80
2018-04-19T11:24:25.769Z,25.00
2018-04-19T11:25:25.749Z,24.00
2018-04-19T11:26:25.738Z,24.10
2018-04-19T11:27:25.727Z,24.80
2018-04-19T11:28:25.718Z,26.00
2018-04-19T11:29:25.710Z,25.70
2018-04-19T11:30:25.699Z,24.20
2018-04-19T11:31:25.688Z,25.50
2018-04-19T11:32:25.675Z,24.60
2018-04-19T11:33:25.665Z,25.10
2018-04-19T11:34:25.665Z,24.70
2018-04-19T11:35:25.646Z,22.90
2018-04-19T11:36:25.640Z,22.30
2018-04-19T11:37:25.629Z,23.60
2018-04-19T11:38:25.619Z,22.70
2018-04-19T11:39:25.616Z,21.10
2018-04-19T11:40:25.601Z,22.40
2018-04-19T11:41:25.594Z,21.50
2018-04-19T11:42:25.583Z,21.90
2018-04-19T11:43:25.572Z,23.50
2018-04-19T11:44:25.663Z,22.60
2018-04-19T11:45:25.554Z,22.30
2018-04-19T11:46:25.544Z,20.70
2018-04-19T11:47:25.535Z,20.50
2018-04-19T11:48:25.526Z,19.50
2018-04-19T11:49:25.516Z,19.50
2018-04-19T11:50:25.514Z,18.90
2018-04-19T11:51:25.503Z,20.00
2018-04-19T11:52:25.492Z,20.30
2018-04-19T11:53:25.485Z,18.80
2018-04-19T11:54:25.483Z,18.20
2018-04-19T11:55:25.468Z,20.00
2018-04-19T11:56:25.458Z,19.60
2018-04-19T11:57:25.452Z,21.50
2018-04-19T11:58:25.445Z,20.70
2018-04-19T11:59:25.436Z,20.30
2018-04-19T12:00:25.428Z,19.70
2018-04-19T12:01:25.421Z,19.40
2018-04-19T12:02:25.412Z,19.00
2018-04-19T12:03:25.405Z,18.30
2018-04-19T12:04:25.402Z,20.30
2018-04-19T12:05:25.407Z,19.00
2018-04-19T12:06:25.383Z,16.70
2018-04-19T12:07:25.385Z,19.10
2018-04-19T12:08:25.372Z,20.70
2018-04-19T12:09:25.373Z,17.60
2018-04-19T12:10:25.355Z,20.00
2018-04-19T12:11:25.356Z,20.30
2018-04-19T12:12:25.346Z,20.70
2018-04-19T12:13:25.345Z,21.30
2018-04-19T12:14:25.331Z,20.40
2018-04-19T12:15:25.341Z,23.50
2018-04-19T12:16:25.331Z,23.30
2018-04-19T12:17:25.312Z,22.80
2018-04-19T12:18:25.313Z,23.30
2018-04-19T12:19:25.317Z,22.70
2018-04-19T12:20:25.301Z,21.70
2018-04-19T12:21:25.294Z,23.40
2018-04-19T12:22:25.297Z,22.40
2018-04-19T12:23:25.278Z,22.10
2018-04-19T12:24:25.261Z,23.60
2018-04-19T12:25:25.255Z,21.90
2018-04-19T12:26:25.248Z,23.40
2018-04-19T12:27:25.242Z,22.00
2018-04-19T12:28:25.236Z,24.20
2018-04-19T12:29:25.235Z,23.70
2018-04-19T12:30:25.224Z,24.60
2018-04-19T12:31:25.217Z,25.70
2018-04-19T12:32:25.213Z,23.80
2018-04-19T12:33:25.206Z,23.90
2018-04-19T12:34:25.200Z,24.00
2018-04-19T12:35:25.224Z,26.20
2018-04-19T12:36:25.206Z,23.40
2018-04-19T12:37:25.200Z,25.50
2018-04-19T12:38:25.200Z,23.60
2018-04-19T12:39:25.195Z,25.10
2018-04-19T12:40:25.187Z,24.20
2018-04-19T12:41:25.184Z,24.60
2018-04-19T12:42:25.174Z,22.30
2018-04-19T12:43:25.178Z,24.10
2018-04-19T12:44:25.188Z,25.70
2018-04-19T12:45:25.157Z,26.30
2018-04-19T12:46:25.166Z,25.30
2018-04-19T12:47:25.159Z,24.30
2018-04-19T12:48:25.124Z,26.40
2018-04-19T12:49:25.370Z,26.60
2018-04-19T12:50:25.117Z,24.10
2018-04-19T12:51:25.110Z,25.10
2018-04-19T12:52:25.105Z,23.60
2018-04-19T12:53:25.101Z,23.80
2018-04-19T12:54:25.096Z,23.00
2018-04-19T12:55:25.100Z,22.00
2018-04-19T12:56:25.114Z,22.00
2018-04-19T12:57:25.092Z,25.40
2018-04-19T12:58:25.103Z,25.20
2018-04-19T12:59:25.081Z,23.50
2018-04-19T13:00:25.078Z,26.00
2018-04-19T13:01:25.072Z,26.90